sensor_id;sensor_type;location;lat;lon;timestamp;temperature;humidity
9125;DHT22;4597;48.730;9.114;2023-08-06T00:01:48;16.00;99.90
9125;DHT22;4597;48.730;9.114;2023-08-06T00:04:14;16.00;99.90
9125;DHT22;4597;48.730;9.114;2023-08-06T00:06:39;15.90;99.90
9125;DHT22;4597;48.730;9.114;2023-08-06T00:09:05;15.90;99.90
9125;DHT22;4597;48.730;9.114;2023-08-06T00:11:31;15.90;99.90
9125;DHT22;4597;48.730;9.114;2023-08-06T00:13:56;15.80;99.90
9125;DHT22;4597;48.730;9.114;2023-08-06T00:16:22;15.80;99.90
9125;DHT22;4597;48.730;9.114;2023-08-06T00:18:47;15.80;99.90
9125;DHT22;4597;48.730;9.114;2023-08-06T00:21:13;15.80;99.90
9125;DHT22;4597;48.730;9.114;2023-08-06T00:23:39;15.80;99.90
9125;DHT22;4597;48.730;9.114;2023-08-06T00:26:05;15.80;99.90
9125;DHT22;4597;48.730;9.114;2023-08-06T00:28:30;15.80;99.90
9125;DHT22;4597;48.730;9.114;2023-08-06T00:30:56;15.70;99.90
9125;DHT22;4597;48.730;9.114;2023-08-06T00:33:22;15.70;99.90
9125;DHT22;4597;48.730;9.114;2023-08-06T00:35:48;15.70;99.90
9125;DHT22;4597;48.730;9.114;2023-08-06T00:38:13;15.60;99.90
9125;DHT22;4597;48.730;9.114;2023-08-06T00:40:39;15.60;99.90
9125;DHT22;4597;48.730;9.114;2023-08-06T00:43:04;15.60;99.90
9125;DHT22;4597;48.730;9.114;2023-08-06T00:45:31;15.60;99.90
9125;DHT22;4597;48.730;9.114;2023-08-06T00:47:59;15.60;99.90
9125;DHT22;4597;48.730;9.114;2023-08-06T00:50:25;15.60;99.90
9125;DHT22;4597;48.730;9.114;2023-08-06T00:52:51;15.60;99.90
9125;DHT22;4597;48.730;9.114;2023-08-06T00:55:17;15.60;99.90
9125;DHT22;4597;48.730;9.114;2023-08-06T00:57:42;15.50;99.90
9125;DHT22;4597;48.730;9.114;2023-08-06T01:00:08;15.50;99.90
9125;DHT22;4597;48.730;9.114;2023-08-06T01:02:34;15.50;99.90
9125;DHT22;4597;48.730;9.114;2023-08-06T01:05:00;15.50;99.90
9125;DHT22;4597;48.730;9.114;2023-08-06T01:15:24;15.30;99.90
9125;DHT22;4597;48.730;9.114;2023-08-06T01:17:53;15.20;99.90
9125;DHT22;4597;48.730;9.114;2023-08-06T01:20:19;15.20;99.90
9125;DHT22;4597;48.730;9.114;2023-08-06T01:22:44;15.20;99.90
9125;DHT22;4597;48.730;9.114;2023-08-06T01:25:10;15.20;99.90
9125;DHT22;4597;48.730;9.114;2023-08-06T01:27:49;15.10;99.90
9125;DHT22;4597;48.730;9.114;2023-08-06T01:30:25;15.20;99.90
9125;DHT22;4597;48.730;9.114;2023-08-06T01:32:58;15.20;99.90
9125;DHT22;4597;48.730;9.114;2023-08-06T01:35:25;15.20;99.90
9125;DHT22;4597;48.730;9.114;2023-08-06T01:37:52;15.20;99.90
9125;DHT22;4597;48.730;9.114;2023-08-06T01:40:17;15.20;99.90
9125;DHT22;4597;48.730;9.114;2023-08-06T01:42:43;15.30;99.90
9125;DHT22;4597;48.730;9.114;2023-08-06T01:45:09;15.20;99.90
9125;DHT22;4597;48.730;9.114;2023-08-06T01:47:35;15.20;99.90
9125;DHT22;4597;48.730;9.114;2023-08-06T01:50:01;15.20;99.90
9125;DHT22;4597;48.730;9.114;2023-08-06T01:52:27;15.20;99.90
9125;DHT22;4597;48.730;9.114;2023-08-06T01:54:53;15.10;99.90
9125;DHT22;4597;48.730;9.114;2023-08-06T01:57:18;15.10;99.90
9125;DHT22;4597;48.730;9.114;2023-08-06T01:59:43;15.10;99.90
9125;DHT22;4597;48.730;9.114;2023-08-06T02:02:09;15.10;99.90
9125;DHT22;4597;48.730;9.114;2023-08-06T02:04:35;15.10;99.90
9125;DHT22;4597;48.730;9.114;2023-08-06T02:07:00;15.00;99.90
9125;DHT22;4597;48.730;9.114;2023-08-06T02:09:26;15.00;99.90
9125;DHT22;4597;48.730;9.114;2023-08-06T02:11:51;15.00;99.90
9125;DHT22;4597;48.730;9.114;2023-08-06T02:14:17;15.00;99.90
9125;DHT22;4597;48.730;9.114;2023-08-06T02:16:42;15.00;99.90
9125;DHT22;4597;48.730;9.114;2023-08-06T02:19:08;15.00;99.90
9125;DHT22;4597;48.730;9.114;2023-08-06T02:21:33;14.90;99.90
9125;DHT22;4597;48.730;9.114;2023-08-06T02:23:59;14.90;99.90
9125;DHT22;4597;48.730;9.114;2023-08-06T02:26:24;14.90;99.90
9125;DHT22;4597;48.730;9.114;2023-08-06T02:28:50;14.90;99.90
9125;DHT22;4597;48.730;9.114;2023-08-06T02:31:15;14.80;99.90
9125;DHT22;4597;48.730;9.114;2023-08-06T02:33:41;14.80;99.90
9125;DHT22;4597;48.730;9.114;2023-08-06T02:36:06;14.80;99.90
9125;DHT22;4597;48.730;9.114;2023-08-06T02:38:32;14.80;99.90
9125;DHT22;4597;48.730;9.114;2023-08-06T02:40:58;14.80;99.90
9125;DHT22;4597;48.730;9.114;2023-08-06T02:43:23;14.80;99.90
9125;DHT22;4597;48.730;9.114;2023-08-06T02:45:49;14.80;99.90
9125;DHT22;4597;48.730;9.114;2023-08-06T02:48:15;14.80;99.90
9125;DHT22;4597;48.730;9.114;2023-08-06T02:50:41;14.80;99.90
9125;DHT22;4597;48.730;9.114;2023-08-06T02:53:09;14.80;99.90
9125;DHT22;4597;48.730;9.114;2023-08-06T02:55:35;14.80;99.90
9125;DHT22;4597;48.730;9.114;2023-08-06T02:58:01;14.70;99.90
9125;DHT22;4597;48.730;9.114;2023-08-06T03:00:27;14.70;99.90
9125;DHT22;4597;48.730;9.114;2023-08-06T03:02:53;14.70;99.90
9125;DHT22;4597;48.730;9.114;2023-08-06T03:05:19;14.70;99.90
9125;DHT22;4597;48.730;9.114;2023-08-06T03:07:44;14.70;99.90
9125;DHT22;4597;48.730;9.114;2023-08-06T03:10:10;14.70;99.90
9125;DHT22;4597;48.730;9.114;2023-08-06T03:12:35;14.70;99.90
9125;DHT22;4597;48.730;9.114;2023-08-06T03:15:01;14.80;99.90
9125;DHT22;4597;48.730;9.114;2023-08-06T03:17:26;14.80;99.90
9125;DHT22;4597;48.730;9.114;2023-08-06T03:19:52;14.80;99.90
9125;DHT22;4597;48.730;9.114;2023-08-06T03:22:17;14.80;99.90
9125;DHT22;4597;48.730;9.114;2023-08-06T03:24:43;14.80;99.90
9125;DHT22;4597;48.730;9.114;2023-08-06T03:27:08;14.90;99.90
9125;DHT22;4597;48.730;9.114;2023-08-06T03:29:34;14.80;99.90
9125;DHT22;4597;48.730;9.114;2023-08-06T03:31:59;14.80;99.90
9125;DHT22;4597;48.730;9.114;2023-08-06T03:34:25;14.80;99.90
9125;DHT22;4597;48.730;9.114;2023-08-06T03:36:50;14.80;99.90
9125;DHT22;4597;48.730;9.114;2023-08-06T03:39:16;14.80;99.90
9125;DHT22;4597;48.730;9.114;2023-08-06T03:41:41;14.90;99.90
9125;DHT22;4597;48.730;9.114;2023-08-06T03:44:07;14.90;99.90
9125;DHT22;4597;48.730;9.114;2023-08-06T03:46:32;14.90;99.90
9125;DHT22;4597;48.730;9.114;2023-08-06T03:48:59;14.90;99.90
9125;DHT22;4597;48.730;9.114;2023-08-06T03:51:25;14.80;99.90
9125;DHT22;4597;48.730;9.114;2023-08-06T03:53:50;14.80;99.90
9125;DHT22;4597;48.730;9.114;2023-08-06T03:56:16;14.80;99.90
9125;DHT22;4597;48.730;9.114;2023-08-06T03:58:41;14.90;99.90
9125;DHT22;4597;48.730;9.114;2023-08-06T04:01:07;14.90;99.90
9125;DHT22;4597;48.730;9.114;2023-08-06T04:03:33;14.80;99.90
9125;DHT22;4597;48.730;9.114;2023-08-06T04:05:58;14.90;99.90
9125;DHT22;4597;48.730;9.114;2023-08-06T04:08:24;14.90;99.90
9125;DHT22;4597;48.730;9.114;2023-08-06T04:10:52;14.90;99.90
9125;DHT22;4597;48.730;9.114;2023-08-06T04:13:17;14.90;99.90
9125;DHT22;4597;48.730;9.114;2023-08-06T04:15:43;14.80;99.90
9125;DHT22;4597;48.730;9.114;2023-08-06T04:18:08;14.80;99.90
9125;DHT22;4597;48.730;9.114;2023-08-06T04:20:34;14.70;99.90
9125;DHT22;4597;48.730;9.114;2023-08-06T04:22:59;14.70;99.90
9125;DHT22;4597;48.730;9.114;2023-08-06T04:25:30;14.70;99.90
9125;DHT22;4597;48.730;9.114;2023-08-06T04:27:56;14.70;99.90
9125;DHT22;4597;48.730;9.114;2023-08-06T04:30:22;14.60;99.90
9125;DHT22;4597;48.730;9.114;2023-08-06T04:32:50;14.60;99.90
9125;DHT22;4597;48.730;9.114;2023-08-06T04:35:16;14.50;99.90
9125;DHT22;4597;48.730;9.114;2023-08-06T04:37:41;14.50;99.90
9125;DHT22;4597;48.730;9.114;2023-08-06T04:40:07;14.40;99.90
9125;DHT22;4597;48.730;9.114;2023-08-06T04:42:33;14.40;99.90
9125;DHT22;4597;48.730;9.114;2023-08-06T04:45:01;14.50;99.90
9125;DHT22;4597;48.730;9.114;2023-08-06T04:47:26;14.50;99.90
9125;DHT22;4597;48.730;9.114;2023-08-06T04:49:52;14.50;99.90
9125;DHT22;4597;48.730;9.114;2023-08-06T04:52:17;14.60;99.90
9125;DHT22;4597;48.730;9.114;2023-08-06T04:54:43;14.50;99.90
9125;DHT22;4597;48.730;9.114;2023-08-06T04:57:09;14.50;99.90
9125;DHT22;4597;48.730;9.114;2023-08-06T04:59:35;14.50;99.90
9125;DHT22;4597;48.730;9.114;2023-08-06T05:02:01;14.60;99.90
9125;DHT22;4597;48.730;9.114;2023-08-06T05:04:27;14.60;99.90
9125;DHT22;4597;48.730;9.114;2023-08-06T05:06:52;14.60;99.90
9125;DHT22;4597;48.730;9.114;2023-08-06T05:09:18;14.70;99.90
9125;DHT22;4597;48.730;9.114;2023-08-06T05:11:43;14.80;99.90
9125;DHT22;4597;48.730;9.114;2023-08-06T05:14:09;14.90;99.90
9125;DHT22;4597;48.730;9.114;2023-08-06T05:16:34;14.90;99.90
9125;DHT22;4597;48.730;9.114;2023-08-06T05:19:00;15.00;99.90
9125;DHT22;4597;48.730;9.114;2023-08-06T05:21:25;15.00;99.90
9125;DHT22;4597;48.730;9.114;2023-08-06T05:23:51;15.00;99.90
9125;DHT22;4597;48.730;9.114;2023-08-06T05:26:16;15.10;99.90
9125;DHT22;4597;48.730;9.114;2023-08-06T05:28:44;15.10;99.90
9125;DHT22;4597;48.730;9.114;2023-08-06T05:31:10;15.00;99.90
9125;DHT22;4597;48.730;9.114;2023-08-06T05:33:36;15.00;99.90
9125;DHT22;4597;48.730;9.114;2023-08-06T05:36:01;14.90;99.90
9125;DHT22;4597;48.730;9.114;2023-08-06T05:38:27;15.00;99.90
9125;DHT22;4597;48.730;9.114;2023-08-06T05:40:52;15.00;99.90
9125;DHT22;4597;48.730;9.114;2023-08-06T05:43:18;15.00;99.90
9125;DHT22;4597;48.730;9.114;2023-08-06T05:45:49;15.00;99.90
9125;DHT22;4597;48.730;9.114;2023-08-06T05:48:15;15.00;99.90
9125;DHT22;4597;48.730;9.114;2023-08-06T05:50:41;15.00;99.90
9125;DHT22;4597;48.730;9.114;2023-08-06T05:53:07;15.10;99.90
9125;DHT22;4597;48.730;9.114;2023-08-06T05:55:33;15.00;99.90
9125;DHT22;4597;48.730;9.114;2023-08-06T05:57:59;15.10;99.90
9125;DHT22;4597;48.730;9.114;2023-08-06T06:00:25;15.10;99.90
9125;DHT22;4597;48.730;9.114;2023-08-06T06:02:50;15.10;99.90
9125;DHT22;4597;48.730;9.114;2023-08-06T06:05:16;15.00;99.90
9125;DHT22;4597;48.730;9.114;2023-08-06T06:07:41;15.00;99.90
9125;DHT22;4597;48.730;9.114;2023-08-06T06:10:07;15.00;99.90
9125;DHT22;4597;48.730;9.114;2023-08-06T06:12:33;15.00;99.90
9125;DHT22;4597;48.730;9.114;2023-08-06T06:14:58;15.00;99.90
9125;DHT22;4597;48.730;9.114;2023-08-06T06:17:26;15.10;99.90
9125;DHT22;4597;48.730;9.114;2023-08-06T06:19:52;15.20;99.90
9125;DHT22;4597;48.730;9.114;2023-08-06T06:22:17;15.20;99.90
9125;DHT22;4597;48.730;9.114;2023-08-06T06:24:43;15.30;99.90
9125;DHT22;4597;48.730;9.114;2023-08-06T06:27:09;15.30;99.90
9125;DHT22;4597;48.730;9.114;2023-08-06T06:29:35;15.30;99.90
9125;DHT22;4597;48.730;9.114;2023-08-06T06:32:00;15.30;99.90
9125;DHT22;4597;48.730;9.114;2023-08-06T06:34:26;15.40;99.90
9125;DHT22;4597;48.730;9.114;2023-08-06T06:36:51;15.40;99.90
9125;DHT22;4597;48.730;9.114;2023-08-06T06:39:18;15.40;99.90
9125;DHT22;4597;48.730;9.114;2023-08-06T06:41:43;15.40;99.90
9125;DHT22;4597;48.730;9.114;2023-08-06T06:44:09;15.40;99.90
9125;DHT22;4597;48.730;9.114;2023-08-06T06:46:35;15.40;99.90
9125;DHT22;4597;48.730;9.114;2023-08-06T06:49:00;15.40;99.90
9125;DHT22;4597;48.730;9.114;2023-08-06T06:51:26;15.30;99.90
9125;DHT22;4597;48.730;9.114;2023-08-06T06:53:51;15.40;99.90
9125;DHT22;4597;48.730;9.114;2023-08-06T06:56:17;15.50;99.90
9125;DHT22;4597;48.730;9.114;2023-08-06T06:58:42;15.40;99.90
9125;DHT22;4597;48.730;9.114;2023-08-06T07:01:09;15.50;99.90
9125;DHT22;4597;48.730;9.114;2023-08-06T07:03:35;15.50;99.90
9125;DHT22;4597;48.730;9.114;2023-08-06T07:06:01;15.50;99.90
9125;DHT22;4597;48.730;9.114;2023-08-06T07:08:27;15.60;99.90
9125;DHT22;4597;48.730;9.114;2023-08-06T07:11:03;15.50;99.90
9125;DHT22;4597;48.730;9.114;2023-08-06T07:13:29;15.50;99.90
9125;DHT22;4597;48.730;9.114;2023-08-06T07:15:55;15.50;99.90
9125;DHT22;4597;48.730;9.114;2023-08-06T07:18:21;15.50;99.90
9125;DHT22;4597;48.730;9.114;2023-08-06T07:20:51;15.40;99.90
9125;DHT22;4597;48.730;9.114;2023-08-06T07:23:17;15.40;99.90
9125;DHT22;4597;48.730;9.114;2023-08-06T07:25:42;15.30;99.90
9125;DHT22;4597;48.730;9.114;2023-08-06T07:28:09;15.40;99.90
9125;DHT22;4597;48.730;9.114;2023-08-06T07:30:38;15.40;99.90
9125;DHT22;4597;48.730;9.114;2023-08-06T07:33:04;15.50;99.90
9125;DHT22;4597;48.730;9.114;2023-08-06T07:35:29;15.50;99.90
9125;DHT22;4597;48.730;9.114;2023-08-06T07:37:55;15.60;99.90
9125;DHT22;4597;48.730;9.114;2023-08-06T07:40:20;15.50;99.90
9125;DHT22;4597;48.730;9.114;2023-08-06T07:42:46;15.60;99.90
9125;DHT22;4597;48.730;9.114;2023-08-06T07:45:11;15.50;99.90
9125;DHT22;4597;48.730;9.114;2023-08-06T07:47:37;15.50;99.90
9125;DHT22;4597;48.730;9.114;2023-08-06T07:50:02;15.50;99.90
9125;DHT22;4597;48.730;9.114;2023-08-06T07:52:28;15.50;99.90
9125;DHT22;4597;48.730;9.114;2023-08-06T07:54:53;15.50;99.90
9125;DHT22;4597;48.730;9.114;2023-08-06T07:57:19;15.50;99.90
9125;DHT22;4597;48.730;9.114;2023-08-06T07:59:45;15.60;99.90
9125;DHT22;4597;48.730;9.114;2023-08-06T08:02:10;15.70;99.90
9125;DHT22;4597;48.730;9.114;2023-08-06T08:04:36;15.80;99.90
9125;DHT22;4597;48.730;9.114;2023-08-06T08:07:01;15.80;99.90
9125;DHT22;4597;48.730;9.114;2023-08-06T08:09:27;15.80;99.90
9125;DHT22;4597;48.730;9.114;2023-08-06T08:11:53;15.80;99.90
9125;DHT22;4597;48.730;9.114;2023-08-06T08:14:18;15.70;99.90
9125;DHT22;4597;48.730;9.114;2023-08-06T08:16:44;15.80;99.90
9125;DHT22;4597;48.730;9.114;2023-08-06T08:19:09;15.80;99.90
9125;DHT22;4597;48.730;9.114;2023-08-06T08:21:35;15.80;99.90
9125;DHT22;4597;48.730;9.114;2023-08-06T08:24:01;15.90;99.90
9125;DHT22;4597;48.730;9.114;2023-08-06T08:26:27;15.90;99.90
9125;DHT22;4597;48.730;9.114;2023-08-06T08:28:55;15.90;99.90
9125;DHT22;4597;48.730;9.114;2023-08-06T08:31:21;16.10;99.90
9125;DHT22;4597;48.730;9.114;2023-08-06T08:33:47;16.20;99.90
9125;DHT22;4597;48.730;9.114;2023-08-06T08:36:12;16.20;99.90
9125;DHT22;4597;48.730;9.114;2023-08-06T08:38:38;16.30;99.90
9125;DHT22;4597;48.730;9.114;2023-08-06T08:41:03;16.30;99.90
9125;DHT22;4597;48.730;9.114;2023-08-06T08:43:29;16.40;99.90
9125;DHT22;4597;48.730;9.114;2023-08-06T08:45:55;16.30;99.90
9125;DHT22;4597;48.730;9.114;2023-08-06T08:48:24;16.10;99.90
9125;DHT22;4597;48.730;9.114;2023-08-06T08:50:50;16.00;99.90
9125;DHT22;4597;48.730;9.114;2023-08-06T08:53:16;15.80;99.90
9125;DHT22;4597;48.730;9.114;2023-08-06T08:55:43;15.70;99.90
9125;DHT22;4597;48.730;9.114;2023-08-06T08:58:10;15.70;99.90
9125;DHT22;4597;48.730;9.114;2023-08-06T09:00:35;15.70;99.90
9125;DHT22;4597;48.730;9.114;2023-08-06T09:03:02;15.80;99.90
9125;DHT22;4597;48.730;9.114;2023-08-06T09:05:31;15.80;99.90
9125;DHT22;4597;48.730;9.114;2023-08-06T09:08:03;15.70;99.90
9125;DHT22;4597;48.730;9.114;2023-08-06T09:10:30;15.70;99.90
9125;DHT22;4597;48.730;9.114;2023-08-06T09:12:56;15.70;99.90
9125;DHT22;4597;48.730;9.114;2023-08-06T09:15:26;15.80;99.90
9125;DHT22;4597;48.730;9.114;2023-08-06T09:17:53;15.90;99.90
9125;DHT22;4597;48.730;9.114;2023-08-06T09:20:19;16.10;99.90
9125;DHT22;4597;48.730;9.114;2023-08-06T09:22:44;16.30;99.90
9125;DHT22;4597;48.730;9.114;2023-08-06T09:25:11;16.20;99.90
9125;DHT22;4597;48.730;9.114;2023-08-06T09:27:39;16.20;99.90
9125;DHT22;4597;48.730;9.114;2023-08-06T09:30:06;16.00;99.90
9125;DHT22;4597;48.730;9.114;2023-08-06T09:32:45;16.00;99.90
9125;DHT22;4597;48.730;9.114;2023-08-06T09:35:17;16.00;99.90
9125;DHT22;4597;48.730;9.114;2023-08-06T09:37:43;16.00;99.90
9125;DHT22;4597;48.730;9.114;2023-08-06T09:40:28;16.00;99.90
9125;DHT22;4597;48.730;9.114;2023-08-06T09:42:54;15.90;99.90
9125;DHT22;4597;48.730;9.114;2023-08-06T09:45:20;15.90;99.90
9125;DHT22;4597;48.730;9.114;2023-08-06T09:47:50;15.90;99.90
9125;DHT22;4597;48.730;9.114;2023-08-06T09:50:19;16.00;99.90
9125;DHT22;4597;48.730;9.114;2023-08-06T09:52:47;16.10;99.90
9125;DHT22;4597;48.730;9.114;2023-08-06T09:55:14;16.10;99.90
9125;DHT22;4597;48.730;9.114;2023-08-06T09:57:41;16.00;99.90
9125;DHT22;4597;48.730;9.114;2023-08-06T10:00:08;15.90;99.90
9125;DHT22;4597;48.730;9.114;2023-08-06T10:02:38;15.80;99.90
9125;DHT22;4597;48.730;9.114;2023-08-06T10:05:08;15.80;99.90
9125;DHT22;4597;48.730;9.114;2023-08-06T10:07:34;15.90;99.90
9125;DHT22;4597;48.730;9.114;2023-08-06T10:10:00;15.90;99.90
9125;DHT22;4597;48.730;9.114;2023-08-06T10:12:29;15.90;99.90
9125;DHT22;4597;48.730;9.114;2023-08-06T10:14:57;15.90;99.90
9125;DHT22;4597;48.730;9.114;2023-08-06T10:17:24;15.90;99.90
9125;DHT22;4597;48.730;9.114;2023-08-06T10:19:50;15.90;99.90
9125;DHT22;4597;48.730;9.114;2023-08-06T10:22:18;15.90;99.90
9125;DHT22;4597;48.730;9.114;2023-08-06T10:24:50;15.80;99.90
9125;DHT22;4597;48.730;9.114;2023-08-06T10:27:29;16.00;99.90
9125;DHT22;4597;48.730;9.114;2023-08-06T10:30:27;16.10;99.90
9125;DHT22;4597;48.730;9.114;2023-08-06T10:32:54;16.30;99.90
9125;DHT22;4597;48.730;9.114;2023-08-06T10:38:19;16.00;99.90
9125;DHT22;4597;48.730;9.114;2023-08-06T10:41:02;16.00;99.90
9125;DHT22;4597;48.730;9.114;2023-08-06T10:43:35;15.90;99.90
9125;DHT22;4597;48.730;9.114;2023-08-06T10:46:02;15.80;99.90
9125;DHT22;4597;48.730;9.114;2023-08-06T10:48:39;15.80;99.90
9125;DHT22;4597;48.730;9.114;2023-08-06T10:51:08;15.80;99.90
9125;DHT22;4597;48.730;9.114;2023-08-06T10:53:34;15.70;99.90
9125;DHT22;4597;48.730;9.114;2023-08-06T10:56:00;15.60;99.90
9125;DHT22;4597;48.730;9.114;2023-08-06T10:58:31;15.60;99.90
9125;DHT22;4597;48.730;9.114;2023-08-06T11:00:57;15.40;99.90
9125;DHT22;4597;48.730;9.114;2023-08-06T11:03:22;15.40;99.90
9125;DHT22;4597;48.730;9.114;2023-08-06T11:05:49;15.40;99.90
9125;DHT22;4597;48.730;9.114;2023-08-06T11:08:27;15.50;99.90
9125;DHT22;4597;48.730;9.114;2023-08-06T11:10:53;15.60;99.90
9125;DHT22;4597;48.730;9.114;2023-08-06T11:13:20;15.60;99.90
9125;DHT22;4597;48.730;9.114;2023-08-06T11:15:46;15.70;99.90
9125;DHT22;4597;48.730;9.114;2023-08-06T11:18:12;15.80;99.90
9125;DHT22;4597;48.730;9.114;2023-08-06T11:20:38;16.00;99.90
9125;DHT22;4597;48.730;9.114;2023-08-06T11:23:04;16.20;99.90
9125;DHT22;4597;48.730;9.114;2023-08-06T11:25:30;16.10;99.90
9125;DHT22;4597;48.730;9.114;2023-08-06T11:27:55;16.10;99.90
9125;DHT22;4597;48.730;9.114;2023-08-06T11:30:21;15.90;99.90
9125;DHT22;4597;48.730;9.114;2023-08-06T11:32:47;15.70;99.90
9125;DHT22;4597;48.730;9.114;2023-08-06T11:35:14;15.60;99.90
9125;DHT22;4597;48.730;9.114;2023-08-06T11:37:44;15.60;99.90
9125;DHT22;4597;48.730;9.114;2023-08-06T11:40:10;15.50;99.90
9125;DHT22;4597;48.730;9.114;2023-08-06T11:42:36;15.30;99.90
9125;DHT22;4597;48.730;9.114;2023-08-06T11:45:03;15.00;99.90
9125;DHT22;4597;48.730;9.114;2023-08-06T11:47:29;15.10;99.90
9125;DHT22;4597;48.730;9.114;2023-08-06T11:49:55;14.80;99.90
9125;DHT22;4597;48.730;9.114;2023-08-06T11:52:25;14.60;99.90
9125;DHT22;4597;48.730;9.114;2023-08-06T11:55:04;14.50;99.90
9125;DHT22;4597;48.730;9.114;2023-08-06T11:57:36;14.40;99.90
9125;DHT22;4597;48.730;9.114;2023-08-06T12:00:09;14.30;99.90
9125;DHT22;4597;48.730;9.114;2023-08-06T12:02:35;14.40;99.90
9125;DHT22;4597;48.730;9.114;2023-08-06T12:05:12;14.30;99.90
9125;DHT22;4597;48.730;9.114;2023-08-06T12:07:52;14.30;99.90
9125;DHT22;4597;48.730;9.114;2023-08-06T12:10:19;14.30;99.90
9125;DHT22;4597;48.730;9.114;2023-08-06T12:12:45;14.20;99.90
9125;DHT22;4597;48.730;9.114;2023-08-06T12:15:11;14.20;99.90
9125;DHT22;4597;48.730;9.114;2023-08-06T12:17:37;14.20;99.90
9125;DHT22;4597;48.730;9.114;2023-08-06T12:20:03;14.20;99.90
9125;DHT22;4597;48.730;9.114;2023-08-06T12:22:33;14.20;99.90
9125;DHT22;4597;48.730;9.114;2023-08-06T12:25:04;14.30;99.90
9125;DHT22;4597;48.730;9.114;2023-08-06T12:27:32;14.30;99.90
9125;DHT22;4597;48.730;9.114;2023-08-06T12:29:57;14.30;99.90
9125;DHT22;4597;48.730;9.114;2023-08-06T12:32:23;14.30;99.90
9125;DHT22;4597;48.730;9.114;2023-08-06T12:34:48;14.40;99.90
9125;DHT22;4597;48.730;9.114;2023-08-06T12:37:14;14.40;99.90
9125;DHT22;4597;48.730;9.114;2023-08-06T12:39:39;14.50;99.90
9125;DHT22;4597;48.730;9.114;2023-08-06T12:42:06;14.60;99.90
9125;DHT22;4597;48.730;9.114;2023-08-06T12:44:32;14.50;99.90
9125;DHT22;4597;48.730;9.114;2023-08-06T12:46:58;14.60;99.90
9125;DHT22;4597;48.730;9.114;2023-08-06T12:49:25;14.50;99.90
9125;DHT22;4597;48.730;9.114;2023-08-06T12:51:52;14.60;99.90
9125;DHT22;4597;48.730;9.114;2023-08-06T12:54:19;14.50;99.90
9125;DHT22;4597;48.730;9.114;2023-08-06T12:56:45;14.60;99.90
9125;DHT22;4597;48.730;9.114;2023-08-06T12:59:13;14.70;99.90
9125;DHT22;4597;48.730;9.114;2023-08-06T13:01:39;14.80;99.90
9125;DHT22;4597;48.730;9.114;2023-08-06T13:04:04;14.80;99.90
9125;DHT22;4597;48.730;9.114;2023-08-06T13:06:30;14.80;99.90
9125;DHT22;4597;48.730;9.114;2023-08-06T13:08:57;14.80;99.90
9125;DHT22;4597;48.730;9.114;2023-08-06T13:11:23;14.80;99.90
9125;DHT22;4597;48.730;9.114;2023-08-06T13:13:49;14.80;99.90
9125;DHT22;4597;48.730;9.114;2023-08-06T13:16:15;14.80;99.90
9125;DHT22;4597;48.730;9.114;2023-08-06T13:18:40;14.80;99.90
9125;DHT22;4597;48.730;9.114;2023-08-06T13:21:06;14.80;99.90
9125;DHT22;4597;48.730;9.114;2023-08-06T13:23:31;14.80;99.90
9125;DHT22;4597;48.730;9.114;2023-08-06T13:25:57;14.70;99.90
9125;DHT22;4597;48.730;9.114;2023-08-06T13:28:23;14.60;99.90
9125;DHT22;4597;48.730;9.114;2023-08-06T13:30:49;14.70;99.90
9125;DHT22;4597;48.730;9.114;2023-08-06T13:33:14;14.80;99.90
9125;DHT22;4597;48.730;9.114;2023-08-06T13:35:40;15.00;99.90
9125;DHT22;4597;48.730;9.114;2023-08-06T13:38:06;15.10;99.90
9125;DHT22;4597;48.730;9.114;2023-08-06T13:40:33;15.30;99.90
9125;DHT22;4597;48.730;9.114;2023-08-06T13:42:58;15.40;99.90
9125;DHT22;4597;48.730;9.114;2023-08-06T13:45:24;15.40;99.90
9125;DHT22;4597;48.730;9.114;2023-08-06T13:47:50;15.30;99.90
9125;DHT22;4597;48.730;9.114;2023-08-06T13:50:15;15.20;99.90
9125;DHT22;4597;48.730;9.114;2023-08-06T13:52:41;15.10;99.90
9125;DHT22;4597;48.730;9.114;2023-08-06T13:55:07;15.10;99.90
9125;DHT22;4597;48.730;9.114;2023-08-06T13:57:34;15.20;99.90
9125;DHT22;4597;48.730;9.114;2023-08-06T14:00:00;15.20;99.90
9125;DHT22;4597;48.730;9.114;2023-08-06T14:02:26;15.30;99.90
9125;DHT22;4597;48.730;9.114;2023-08-06T14:04:54;15.40;99.90
9125;DHT22;4597;48.730;9.114;2023-08-06T14:07:20;15.30;99.90
9125;DHT22;4597;48.730;9.114;2023-08-06T14:09:46;15.30;99.90
9125;DHT22;4597;48.730;9.114;2023-08-06T14:12:12;15.20;99.90
9125;DHT22;4597;48.730;9.114;2023-08-06T14:14:38;15.20;99.90
9125;DHT22;4597;48.730;9.114;2023-08-06T14:17:04;15.20;99.90
9125;DHT22;4597;48.730;9.114;2023-08-06T14:19:29;15.20;99.90
9125;DHT22;4597;48.730;9.114;2023-08-06T14:21:55;15.10;99.90
9125;DHT22;4597;48.730;9.114;2023-08-06T14:24:21;15.10;99.90
9125;DHT22;4597;48.730;9.114;2023-08-06T14:26:46;15.10;99.90
9125;DHT22;4597;48.730;9.114;2023-08-06T14:29:12;14.90;99.90
9125;DHT22;4597;48.730;9.114;2023-08-06T14:31:39;14.90;99.90
9125;DHT22;4597;48.730;9.114;2023-08-06T14:34:04;14.80;99.90
9125;DHT22;4597;48.730;9.114;2023-08-06T14:36:30;14.80;99.90
9125;DHT22;4597;48.730;9.114;2023-08-06T14:38:55;15.00;99.90
9125;DHT22;4597;48.730;9.114;2023-08-06T14:41:21;15.10;99.90
9125;DHT22;4597;48.730;9.114;2023-08-06T14:43:46;15.30;99.90
9125;DHT22;4597;48.730;9.114;2023-08-06T14:46:12;15.50;99.90
9125;DHT22;4597;48.730;9.114;2023-08-06T14:48:37;15.60;99.90
9125;DHT22;4597;48.730;9.114;2023-08-06T14:51:04;15.60;99.90
9125;DHT22;4597;48.730;9.114;2023-08-06T14:53:29;15.60;99.90
9125;DHT22;4597;48.730;9.114;2023-08-06T14:55:55;15.60;99.90
9125;DHT22;4597;48.730;9.114;2023-08-06T14:58:20;15.60;99.90
9125;DHT22;4597;48.730;9.114;2023-08-06T15:00:46;15.50;99.90
9125;DHT22;4597;48.730;9.114;2023-08-06T15:03:11;15.50;99.90
9125;DHT22;4597;48.730;9.114;2023-08-06T15:05:37;15.40;99.90
9125;DHT22;4597;48.730;9.114;2023-08-06T15:08:03;15.30;99.90
9125;DHT22;4597;48.730;9.114;2023-08-06T15:10:28;15.30;99.90
9125;DHT22;4597;48.730;9.114;2023-08-06T15:12:54;15.10;99.90
9125;DHT22;4597;48.730;9.114;2023-08-06T15:15:20;15.20;99.90
9125;DHT22;4597;48.730;9.114;2023-08-06T15:17:47;15.20;99.90
9125;DHT22;4597;48.730;9.114;2023-08-06T15:20:13;15.30;99.90
9125;DHT22;4597;48.730;9.114;2023-08-06T15:22:39;15.20;99.90
9125;DHT22;4597;48.730;9.114;2023-08-06T15:25:04;15.20;99.90
9125;DHT22;4597;48.730;9.114;2023-08-06T15:27:30;15.20;99.90
9125;DHT22;4597;48.730;9.114;2023-08-06T15:29:57;15.20;99.90
9125;DHT22;4597;48.730;9.114;2023-08-06T15:32:22;15.20;99.90
9125;DHT22;4597;48.730;9.114;2023-08-06T15:34:48;15.20;99.90
9125;DHT22;4597;48.730;9.114;2023-08-06T15:37:14;15.30;99.90
9125;DHT22;4597;48.730;9.114;2023-08-06T15:39:40;15.40;99.90
9125;DHT22;4597;48.730;9.114;2023-08-06T15:42:06;15.40;99.90
9125;DHT22;4597;48.730;9.114;2023-08-06T15:44:31;15.40;99.90
9125;DHT22;4597;48.730;9.114;2023-08-06T15:46:57;15.30;99.90
9125;DHT22;4597;48.730;9.114;2023-08-06T15:49:22;15.30;99.90
9125;DHT22;4597;48.730;9.114;2023-08-06T15:51:48;15.30;99.90
9125;DHT22;4597;48.730;9.114;2023-08-06T15:54:13;15.20;99.90
9125;DHT22;4597;48.730;9.114;2023-08-06T15:56:39;15.10;99.90
9125;DHT22;4597;48.730;9.114;2023-08-06T15:59:24;15.10;99.90
9125;DHT22;4597;48.730;9.114;2023-08-06T16:01:50;15.00;99.90
9125;DHT22;4597;48.730;9.114;2023-08-06T16:04:16;14.90;99.90
9125;DHT22;4597;48.730;9.114;2023-08-06T16:06:42;14.80;99.90
9125;DHT22;4597;48.730;9.114;2023-08-06T16:09:07;14.70;99.90